createdAt,value
2024-02-19T00:01:44.773Z,17.08
2024-02-19T00:04:30.455Z,10.80
2024-02-19T00:07:18.884Z,13.25
2024-02-19T00:10:04.960Z,13.40
2024-02-19T00:12:50.158Z,9.68
2024-02-19T00:15:35.778Z,16.02
2024-02-19T00:18:21.742Z,8.80
2024-02-19T00:21:07.988Z,11.50
2024-02-19T00:23:53.923Z,8.63
2024-02-19T00:26:39.623Z,11.13
2024-02-19T00:29:25.205Z,10.48
2024-02-19T00:32:10.567Z,18.30
2024-02-19T00:34:56.659Z,5.18
2024-02-19T00:37:42.740Z,11.48
2024-02-19T00:40:28.063Z,11.73
2024-02-19T00:43:13.891Z,11.70
2024-02-19T00:46:00.084Z,17.92
2024-02-19T00:48:45.399Z,12.82
2024-02-19T00:51:35.730Z,19.50
2024-02-19T00:54:20.915Z,11.93
2024-02-19T00:57:06.538Z,15.93
2024-02-19T00:59:52.216Z,8.00
2024-02-19T01:02:37.582Z,8.57
2024-02-19T01:05:23.164Z,11.77
2024-02-19T01:08:08.486Z,14.05
2024-02-19T01:10:54.217Z,8.05
2024-02-19T01:13:40.881Z,8.93
2024-02-19T01:16:26.441Z,12.98
2024-02-19T01:19:11.929Z,6.75
2024-02-19T01:21:57.344Z,12.80
2024-02-19T01:24:42.717Z,9.20
2024-02-19T01:27:29.862Z,10.45
2024-02-19T01:30:15.081Z,12.15
2024-02-19T01:33:02.765Z,17.33
2024-02-19T01:35:48.510Z,10.00
2024-02-19T01:38:33.609Z,13.75
2024-02-19T01:41:19.165Z,11.85
2024-02-19T01:44:05.695Z,8.35
2024-02-19T01:46:52.515Z,10.25
2024-02-19T01:49:39.673Z,12.75
2024-02-19T01:52:25.651Z,10.20
2024-02-19T01:55:12.504Z,10.50
2024-02-19T01:57:59.105Z,12.55
2024-02-19T02:00:46.059Z,10.02
2024-02-19T02:03:32.124Z,8.75
2024-02-19T02:06:17.834Z,8.20
2024-02-19T02:09:03.371Z,10.90
2024-02-19T02:11:48.863Z,6.82
2024-02-19T02:14:34.565Z,9.73
2024-02-19T02:17:20.086Z,16.65
2024-02-19T02:20:06.103Z,13.68
2024-02-19T02:22:51.899Z,13.23
2024-02-19T02:25:38.690Z,14.40
2024-02-19T02:28:24.162Z,12.18
2024-02-19T02:31:09.754Z,14.90
2024-02-19T02:33:55.409Z,13.35
2024-02-19T02:36:41.652Z,15.10
2024-02-19T02:39:26.892Z,9.18
2024-02-19T02:42:12.727Z,12.20
2024-02-19T02:44:57.986Z,9.13
2024-02-19T02:47:43.421Z,8.80
2024-02-19T02:50:28.817Z,12.50
2024-02-19T02:53:14.450Z,6.57
2024-02-19T02:55:59.895Z,7.40
2024-02-19T02:58:46.268Z,12.55
2024-02-19T03:01:31.872Z,11.10
2024-02-19T03:04:17.794Z,10.93
2024-02-19T03:07:03.744Z,12.52
2024-02-19T03:09:49.073Z,9.73
2024-02-19T03:12:34.467Z,11.90
2024-02-19T03:15:20.051Z,7.10
2024-02-19T03:18:05.848Z,8.13
2024-02-19T03:20:51.396Z,5.70
2024-02-19T03:23:37.061Z,5.70
2024-02-19T03:26:37.458Z,3.10
2024-02-19T03:29:26.520Z,6.15
2024-02-19T03:32:12.006Z,5.22
2024-02-19T03:34:57.462Z,8.05
2024-02-19T03:37:43.134Z,4.95
2024-02-19T03:40:28.616Z,6.18
2024-02-19T03:43:14.514Z,7.10
2024-02-19T03:46:01.960Z,9.82
2024-02-19T03:48:47.698Z,7.78
2024-02-19T03:51:32.940Z,6.38
2024-02-19T03:54:19.168Z,4.68
2024-02-19T03:57:05.753Z,6.07
2024-02-19T03:59:51.347Z,4.53
2024-02-19T04:02:37.426Z,6.78
2024-02-19T04:05:22.969Z,4.45
2024-02-19T04:08:09.984Z,5.88
2024-02-19T04:10:55.340Z,5.25
2024-02-19T04:13:40.827Z,2.20
2024-02-19T04:16:26.672Z,6.05
2024-02-19T04:19:12.325Z,5.85
2024-02-19T04:21:57.866Z,11.27
2024-02-19T04:24:43.242Z,12.40
2024-02-19T04:27:28.845Z,14.85
2024-02-19T04:30:14.330Z,8.75
2024-02-19T04:32:59.900Z,7.38
2024-02-19T04:35:45.279Z,8.70
2024-02-19T04:38:30.759Z,5.93
2024-02-19T04:41:16.288Z,6.63
2024-02-19T04:44:01.824Z,7.18
2024-02-19T04:46:47.429Z,9.63
2024-02-19T04:49:33.346Z,9.13
2024-02-19T04:52:18.753Z,10.75
2024-02-19T04:55:04.732Z,5.32
2024-02-19T04:57:50.188Z,6.00
2024-02-19T05:00:38.364Z,6.72
2024-02-19T05:03:24.411Z,6.70
2024-02-19T05:06:10.039Z,5.78
2024-02-19T05:08:56.040Z,7.90
2024-02-19T05:11:41.691Z,8.32
2024-02-19T05:14:27.123Z,4.75
2024-02-19T05:17:12.832Z,7.90
2024-02-19T05:19:58.397Z,9.77
2024-02-19T05:22:44.304Z,7.05
2024-02-19T05:25:30.010Z,6.05
2024-02-19T05:28:15.571Z,5.25
2024-02-19T05:31:02.939Z,5.38
2024-02-19T05:33:48.251Z,8.68
2024-02-19T05:36:34.343Z,5.07
2024-02-19T05:39:19.849Z,6.88
2024-02-19T05:42:06.643Z,7.22
2024-02-19T05:44:51.988Z,5.25
2024-02-19T05:47:37.677Z,9.68
2024-02-19T05:50:23.397Z,5.57
2024-02-19T05:53:08.929Z,4.50
2024-02-19T05:55:54.240Z,4.32
2024-02-19T05:58:41.344Z,4.60
2024-02-19T06:01:27.199Z,3.95
2024-02-19T06:04:12.552Z,4.22
2024-02-19T06:07:00.384Z,5.53
2024-02-19T06:09:46.216Z,4.88
2024-02-19T06:12:31.841Z,10.18
2024-02-19T06:15:17.009Z,6.22
2024-02-19T06:18:02.563Z,9.57
2024-02-19T06:20:48.954Z,4.03
2024-02-19T06:23:34.827Z,4.80
2024-02-19T06:26:19.909Z,4.78
2024-02-19T06:29:05.602Z,6.55
2024-02-19T06:31:53.245Z,5.38
2024-02-19T06:34:42.793Z,6.90
2024-02-19T06:37:29.257Z,5.85
2024-02-19T06:40:15.115Z,4.30
2024-02-19T06:43:01.438Z,4.13
2024-02-19T06:45:46.706Z,5.88
2024-02-19T06:48:32.285Z,6.25
2024-02-19T06:51:18.741Z,4.90
2024-02-19T06:54:04.454Z,7.40
2024-02-19T06:56:50.088Z,4.15
2024-02-19T06:59:35.599Z,4.97
2024-02-19T07:02:21.507Z,5.47
2024-02-19T07:05:08.151Z,4.70
2024-02-19T07:07:53.961Z,9.95
2024-02-19T07:10:39.598Z,3.63
2024-02-19T07:13:25.503Z,4.82
2024-02-19T07:16:11.333Z,2.67
2024-02-19T07:18:57.089Z,9.63
2024-02-19T07:21:42.761Z,10.45
2024-02-19T07:24:29.488Z,4.75
2024-02-19T07:27:15.407Z,6.32
2024-02-19T07:30:00.738Z,6.25
2024-02-19T07:32:46.277Z,4.68
2024-02-19T07:35:31.806Z,4.38
2024-02-19T07:38:17.295Z,3.13
2024-02-19T07:41:02.725Z,8.18
2024-02-19T07:43:48.212Z,4.20
2024-02-19T07:46:33.776Z,4.30
2024-02-19T07:49:19.695Z,4.20
2024-02-19T07:52:05.358Z,5.45
2024-02-19T07:54:50.648Z,5.10
2024-02-19T07:57:36.052Z,5.55
2024-02-19T08:00:22.736Z,7.72
2024-02-19T08:03:08.860Z,4.95
2024-02-19T08:05:54.380Z,5.50
2024-02-19T08:08:39.597Z,4.95
2024-02-19T08:11:25.196Z,8.98
2024-02-19T08:14:10.578Z,8.38
2024-02-19T08:16:56.436Z,5.15
2024-02-19T08:19:42.258Z,8.32
2024-02-19T08:22:27.644Z,5.85
2024-02-19T08:25:13.363Z,9.73
2024-02-19T08:27:58.881Z,5.43
2024-02-19T08:30:45.015Z,15.05
2024-02-19T08:33:30.588Z,9.15
2024-02-19T08:36:16.195Z,5.43
2024-02-19T08:39:01.843Z,10.40
2024-02-19T08:41:47.449Z,6.70
2024-02-19T08:44:33.293Z,8.95
2024-02-19T08:47:19.229Z,7.00
2024-02-19T08:50:05.669Z,10.80
2024-02-19T08:52:51.671Z,6.50
2024-02-19T08:55:37.308Z,7.38
2024-02-19T08:58:22.888Z,10.52
2024-02-19T09:01:12.161Z,9.60
2024-02-19T09:03:57.992Z,11.20
2024-02-19T09:06:43.589Z,8.95
2024-02-19T09:09:29.107Z,7.93
2024-02-19T09:12:14.742Z,13.32
2024-02-19T09:15:00.565Z,8.93
2024-02-19T09:17:46.091Z,8.50
2024-02-19T09:20:31.581Z,6.10
2024-02-19T09:23:18.021Z,8.35
2024-02-19T09:26:03.983Z,7.78
2024-02-19T09:28:49.792Z,6.93
2024-02-19T09:31:35.336Z,6.95
2024-02-19T09:34:20.842Z,10.20
2024-02-19T09:37:06.347Z,8.63
2024-02-19T09:39:59.172Z,11.93
2024-02-19T09:45:33.990Z,10.35
2024-02-19T09:48:21.124Z,11.25
2024-02-19T09:51:09.714Z,11.27
2024-02-19T09:53:55.295Z,10.18
2024-02-19T09:56:41.423Z,13.10
2024-02-19T09:59:29.933Z,8.77
2024-02-19T10:02:20.020Z,9.05
2024-02-19T10:05:08.525Z,10.25
2024-02-19T10:07:59.049Z,9.05
2024-02-19T10:10:46.760Z,7.28
2024-02-19T10:13:35.128Z,10.00
2024-02-19T10:16:20.769Z,6.80
2024-02-19T10:19:07.418Z,9.70
2024-02-19T10:21:53.415Z,5.05
2024-02-19T10:24:39.127Z,6.40
2024-02-19T10:27:24.673Z,9.80
2024-02-19T10:30:14.176Z,7.05
2024-02-19T10:32:59.993Z,7.40
2024-02-19T10:35:46.315Z,9.48
2024-02-19T10:38:31.918Z,7.30
2024-02-19T10:41:19.398Z,7.07
2024-02-19T10:44:04.971Z,9.75
2024-02-19T10:46:50.415Z,5.53
2024-02-19T10:49:35.792Z,6.35
2024-02-19T10:52:22.787Z,14.18
2024-02-19T10:55:19.933Z,4.80
2024-02-19T10:58:17.929Z,6.68
2024-02-19T11:01:05.187Z,11.00
2024-02-19T11:03:51.126Z,10.60
2024-02-19T11:06:40.153Z,8.20
2024-02-19T11:09:32.551Z,7.85
2024-02-19T11:12:20.985Z,6.95
2024-02-19T11:15:17.278Z,5.30
2024-02-19T11:18:17.033Z,5.60
2024-02-19T11:21:06.475Z,7.47
2024-02-19T11:23:51.882Z,7.18
2024-02-19T11:26:44.438Z,7.97
2024-02-19T11:29:36.593Z,10.10
2024-02-19T11:32:29.012Z,11.20
2024-02-19T11:35:15.311Z,6.32
2024-02-19T11:38:01.457Z,6.90
2024-02-19T11:40:46.933Z,8.23
2024-02-19T11:43:32.696Z,13.25
2024-02-19T11:46:19.786Z,5.47
2024-02-19T11:49:05.725Z,15.23
2024-02-19T11:51:57.762Z,13.77
2024-02-19T11:54:58.008Z,5.82
2024-02-19T11:57:44.359Z,8.13
2024-02-19T12:00:33.703Z,10.75
2024-02-19T12:03:19.512Z,7.18
2024-02-19T12:06:05.573Z,9.63
2024-02-19T12:08:50.851Z,8.57
2024-02-19T12:11:37.233Z,9.52
2024-02-19T12:14:23.245Z,16.77
2024-02-19T12:17:08.665Z,10.98
2024-02-19T12:19:57.067Z,10.23
2024-02-19T12:22:43.367Z,12.85
2024-02-19T12:25:28.839Z,6.53
2024-02-19T12:28:14.525Z,8.85
2024-02-19T12:31:00.149Z,6.63
2024-02-19T12:33:46.284Z,8.75
2024-02-19T12:36:32.120Z,12.32
2024-02-19T12:39:18.731Z,8.77
2024-02-19T12:42:04.596Z,9.82
2024-02-19T12:44:50.193Z,7.90
2024-02-19T12:47:35.647Z,12.38
2024-02-19T12:50:21.527Z,10.82
2024-02-19T12:53:06.988Z,8.40
2024-02-19T12:55:52.735Z,14.27
2024-02-19T12:58:38.418Z,15.80
2024-02-19T13:01:31.400Z,11.18
2024-02-19T13:04:19.201Z,8.57
2024-02-19T13:07:04.807Z,14.35
2024-02-19T13:09:50.423Z,13.30
2024-02-19T13:12:35.825Z,14.25
2024-02-19T13:15:21.324Z,10.60
2024-02-19T13:18:08.694Z,11.80
2024-02-19T13:20:57.448Z,14.07
2024-02-19T13:23:43.640Z,9.07
2024-02-19T13:26:29.409Z,8.63
2024-02-19T13:29:15.244Z,14.40
2024-02-19T13:32:00.749Z,10.00
2024-02-19T13:34:46.614Z,10.20
2024-02-19T13:37:32.046Z,7.28
2024-02-19T13:40:17.700Z,8.50
2024-02-19T13:43:03.198Z,11.30
2024-02-19T13:46:02.300Z,8.43
2024-02-19T13:48:59.068Z,8.55
2024-02-19T13:51:44.504Z,8.13
2024-02-19T13:54:30.113Z,10.43
2024-02-19T13:57:15.484Z,9.85
2024-02-19T14:00:01.070Z,10.75
2024-02-19T14:02:46.533Z,11.70
2024-02-19T14:05:34.209Z,8.95
2024-02-19T14:08:20.498Z,12.95
2024-02-19T14:11:06.047Z,16.48
2024-02-19T14:13:58.161Z,13.95
2024-02-19T14:16:47.748Z,15.60
2024-02-19T14:19:34.976Z,12.20
2024-02-19T14:22:20.453Z,14.48
2024-02-19T14:25:11.276Z,10.88
2024-02-19T14:27:59.567Z,13.82
2024-02-19T14:30:45.132Z,11.10
2024-02-19T14:33:30.586Z,13.85
2024-02-19T14:36:16.234Z,16.95
2024-02-19T14:39:01.800Z,16.48
2024-02-19T14:41:48.450Z,15.73
2024-02-19T14:44:35.505Z,10.73
2024-02-19T14:47:21.613Z,16.42
2024-02-19T14:50:07.848Z,10.30
2024-02-19T14:52:53.148Z,7.68
2024-02-19T14:55:38.850Z,11.73
2024-02-19T14:58:25.499Z,10.48
2024-02-19T15:01:11.115Z,12.68
2024-02-19T15:03:56.631Z,10.18
2024-02-19T15:06:43.431Z,8.00
2024-02-19T15:09:28.663Z,4.97
2024-02-19T15:12:14.143Z,5.63
2024-02-19T15:14:59.704Z,5.97
2024-02-19T15:17:45.264Z,6.05
2024-02-19T15:20:31.059Z,7.07
2024-02-19T15:23:16.578Z,8.23
2024-02-19T15:26:02.900Z,5.93
2024-02-19T15:28:48.350Z,7.85
2024-02-19T15:31:36.050Z,7.18
2024-02-19T15:34:22.899Z,10.00
2024-02-19T15:37:08.696Z,9.55
2024-02-19T15:39:54.304Z,10.88
2024-02-19T15:42:39.863Z,8.90
2024-02-19T15:45:25.303Z,13.25
2024-02-19T15:48:12.146Z,10.63
2024-02-19T15:50:58.503Z,10.98
2024-02-19T15:53:43.669Z,15.55
2024-02-19T15:56:30.368Z,13.02
2024-02-19T15:59:16.896Z,9.15
2024-02-19T16:02:03.007Z,12.43
2024-02-19T16:04:49.702Z,10.30
2024-02-19T16:07:35.906Z,12.63
2024-02-19T16:10:21.511Z,8.02
2024-02-19T16:13:07.021Z,6.95
2024-02-19T16:15:52.480Z,8.73
2024-02-19T16:18:38.707Z,9.10
2024-02-19T16:21:24.051Z,10.45
2024-02-19T16:24:10.831Z,13.68
2024-02-19T16:26:56.300Z,16.85
2024-02-19T16:29:43.143Z,14.68
2024-02-19T16:32:28.387Z,18.35
2024-02-19T16:35:14.266Z,14.73
2024-02-19T16:38:00.136Z,14.43
2024-02-19T16:40:47.573Z,11.85
2024-02-19T16:43:36.680Z,14.23
2024-02-19T16:46:24.421Z,12.98
2024-02-19T16:49:09.731Z,18.10
2024-02-19T16:51:55.273Z,16.25
2024-02-19T16:54:40.822Z,19.17
2024-02-19T16:57:26.862Z,17.58
2024-02-19T17:00:12.599Z,16.98
2024-02-19T17:02:58.050Z,19.00
2024-02-19T17:05:43.914Z,18.23
2024-02-19T17:08:29.879Z,15.48
2024-02-19T17:11:15.341Z,15.73
2024-02-19T17:14:02.311Z,17.00
2024-02-19T17:16:51.903Z,15.63
2024-02-19T17:19:37.557Z,18.67
2024-02-19T17:22:22.875Z,17.42
2024-02-19T17:25:08.516Z,15.75
2024-02-19T17:27:54.095Z,10.63
2024-02-19T17:30:40.983Z,19.65
2024-02-19T17:33:26.674Z,21.17
2024-02-19T17:36:12.894Z,14.88
2024-02-19T17:38:58.164Z,17.05
2024-02-19T17:41:44.761Z,12.48
2024-02-19T17:44:34.004Z,16.92
2024-02-19T17:47:19.799Z,12.48
2024-02-19T17:50:06.451Z,14.02
2024-02-19T17:52:51.887Z,15.95
2024-02-19T17:55:37.279Z,15.50
2024-02-19T17:58:22.867Z,13.02
2024-02-19T18:01:08.429Z,17.92
2024-02-19T18:03:54.853Z,20.23
2024-02-19T18:06:40.195Z,13.40
2024-02-19T18:09:25.449Z,19.75
2024-02-19T18:12:10.782Z,16.23
2024-02-19T18:14:56.791Z,19.88
2024-02-19T18:17:42.610Z,15.43
2024-02-19T18:20:28.197Z,18.25
2024-02-19T18:23:13.740Z,15.80
2024-02-19T18:25:59.266Z,20.15
2024-02-19T18:28:45.661Z,20.13
2024-02-19T18:31:33.042Z,15.27
2024-02-19T18:34:18.854Z,20.95
2024-02-19T18:37:05.370Z,22.95
2024-02-19T18:39:51.524Z,20.00
2024-02-19T18:42:39.391Z,20.27
2024-02-19T18:45:27.299Z,12.20
2024-02-19T18:48:12.493Z,22.65
2024-02-19T18:51:01.548Z,17.58
2024-02-19T18:53:46.726Z,20.77
2024-02-19T18:56:32.179Z,19.90
2024-02-19T18:59:17.707Z,23.40
2024-02-19T19:02:04.840Z,24.25
2024-02-19T19:04:50.142Z,20.00
2024-02-19T19:07:35.923Z,22.70
2024-02-19T19:10:22.543Z,16.08
2024-02-19T19:13:08.196Z,22.70
2024-02-19T19:15:54.509Z,14.20
2024-02-19T19:18:40.096Z,15.68
2024-02-19T19:21:25.539Z,22.30
2024-02-19T19:24:11.167Z,24.55
2024-02-19T19:26:56.305Z,17.08
2024-02-19T19:29:42.157Z,14.55
2024-02-19T19:32:29.716Z,15.43
2024-02-19T19:35:15.530Z,19.50
2024-02-19T19:38:01.318Z,12.07
2024-02-19T19:40:46.818Z,17.17
2024-02-19T19:43:33.837Z,26.35
2024-02-19T19:46:19.746Z,23.73
2024-02-19T19:49:06.014Z,17.25
2024-02-19T19:51:51.708Z,21.92
2024-02-19T19:54:37.628Z,22.52
2024-02-19T19:57:26.066Z,20.65
2024-02-19T20:00:14.322Z,16.50
2024-02-19T20:03:00.374Z,16.30
2024-02-19T20:05:45.930Z,22.33
2024-02-19T20:08:31.998Z,18.55
2024-02-19T20:11:17.529Z,14.75
2024-02-19T20:14:03.243Z,19.70
2024-02-19T20:16:48.941Z,12.95
2024-02-19T20:19:34.678Z,20.15
2024-02-19T20:22:20.757Z,18.55
2024-02-19T20:25:06.501Z,19.77
2024-02-19T20:27:52.441Z,15.15
2024-02-19T20:30:38.652Z,10.32
2024-02-19T20:33:24.046Z,17.17
2024-02-19T20:36:09.399Z,17.23
2024-02-19T20:38:55.820Z,17.88
2024-02-19T20:41:42.592Z,14.13
2024-02-19T20:44:28.447Z,19.05
2024-02-19T20:47:14.192Z,14.65
2024-02-19T20:50:01.090Z,8.15
2024-02-19T20:52:47.016Z,17.45
2024-02-19T20:55:32.875Z,11.20
2024-02-19T20:58:18.118Z,22.50
2024-02-19T21:01:04.021Z,12.98
2024-02-19T21:03:50.267Z,14.70
2024-02-19T21:06:36.095Z,17.05
2024-02-19T21:09:21.849Z,13.70
2024-02-19T21:12:07.559Z,12.13
2024-02-19T21:14:52.779Z,16.23
2024-02-19T21:17:38.938Z,11.27
2024-02-19T21:20:24.766Z,11.50
2024-02-19T21:23:10.217Z,11.85
2024-02-19T21:25:55.543Z,12.15
2024-02-19T21:28:41.106Z,17.10
2024-02-19T21:31:26.840Z,15.30
2024-02-19T21:34:13.294Z,18.10
2024-02-19T21:36:59.231Z,12.90
2024-02-19T21:39:44.982Z,16.27
2024-02-19T21:42:35.097Z,18.88
2024-02-19T21:45:20.500Z,26.30
2024-02-19T21:48:06.684Z,17.40
2024-02-19T21:50:52.493Z,15.18
2024-02-19T21:53:37.949Z,12.13
2024-02-19T21:56:23.480Z,15.32
2024-02-19T21:59:09.077Z,19.02
2024-02-19T22:01:54.612Z,11.63
2024-02-19T22:04:40.405Z,16.65
2024-02-19T22:07:26.382Z,10.18
2024-02-19T22:10:12.174Z,13.25
2024-02-19T22:12:57.887Z,12.23
2024-02-19T22:15:43.555Z,14.95
2024-02-19T22:18:29.222Z,13.95
2024-02-19T22:21:15.037Z,10.27
2024-02-19T22:24:01.351Z,8.68
2024-02-19T22:26:48.963Z,10.57
2024-02-19T22:29:34.331Z,15.85
2024-02-19T22:32:20.894Z,11.70
2024-02-19T22:35:06.683Z,11.23
2024-02-19T22:37:52.045Z,8.00
2024-02-19T22:40:37.802Z,9.48
2024-02-19T22:43:23.728Z,11.52
2024-02-19T22:46:09.201Z,7.82
2024-02-19T22:48:54.718Z,9.52
2024-02-19T22:51:41.073Z,11.95
2024-02-19T22:54:26.321Z,10.05
2024-02-19T22:57:12.298Z,12.00
2024-02-19T22:59:57.685Z,11.27
2024-02-19T23:02:43.385Z,14.57
2024-02-19T23:05:28.753Z,11.40
2024-02-19T23:08:14.301Z,9.15
2024-02-19T23:11:00.221Z,7.25
2024-02-19T23:13:45.857Z,6.85
2024-02-19T23:16:31.721Z,8.63
2024-02-19T23:19:17.437Z,8.65
2024-02-19T23:22:03.239Z,10.68
2024-02-19T23:24:48.626Z,14.88
2024-02-19T23:27:34.277Z,11.73
2024-02-19T23:30:21.900Z,13.75
2024-02-19T23:33:07.031Z,11.55
2024-02-19T23:35:52.259Z,6.97
2024-02-19T23:38:37.856Z,7.45
2024-02-19T23:41:23.268Z,6.68
2024-02-19T23:44:08.942Z,4.63
2024-02-19T23:46:54.298Z,5.43
2024-02-19T23:49:40.966Z,5.88
2024-02-19T23:52:26.696Z,6.50
2024-02-19T23:55:14.660Z,8.07
2024-02-19T23:58:00.454Z,5.40
